sensor_id;sensor_type;location;lat;lon;timestamp;pressure;altitude;pressure_sealevel;temperature;humidity
5350;BME280;2697;42.144;24.794;2023-05-29T00:00:39;-19633.06;;;17.18;100.00
5350;BME280;2697;42.144;24.794;2023-05-29T00:03:04;-19628.13;;;17.01;100.00
5350;BME280;2697;42.144;24.794;2023-05-29T00:05:30;-19629.63;;;17.06;100.00
5350;BME280;2697;42.144;24.794;2023-05-29T00:07:55;-19630.38;;;17.09;100.00
5350;BME280;2697;42.144;24.794;2023-05-29T00:10:21;-19632.16;;;17.15;100.00
5350;BME280;2697;42.144;24.794;2023-05-29T00:12:46;-19629.94;;;17.07;100.00
5350;BME280;2697;42.144;24.794;2023-05-29T00:15:12;-19628.13;;;17.01;100.00
5350;BME280;2697;42.144;24.794;2023-05-29T00:17:37;-19631.56;;;17.13;100.00
5350;BME280;2697;42.144;24.794;2023-05-29T00:20:05;-19635.47;;;17.26;100.00
5350;BME280;2697;42.144;24.794;2023-05-29T00:22:37;-19633.97;;;17.21;100.00
5350;BME280;2697;42.144;24.794;2023-05-29T00:25:06;-19630.09;;;17.08;100.00
5350;BME280;2697;42.144;24.794;2023-05-29T00:27:33;-19634.72;;;17.24;100.00
5350;BME280;2697;42.144;24.794;2023-05-29T00:29:59;-19631.88;;;17.14;100.00
5350;BME280;2697;42.144;24.794;2023-05-29T00:32:25;-19633.22;;;17.19;100.00
5350;BME280;2697;42.144;24.794;2023-05-29T00:34:50;-19632.31;;;17.16;100.00
5350;BME280;2697;42.144;24.794;2023-05-29T00:37:16;-19630.09;;;17.08;100.00
5350;BME280;2697;42.144;24.794;2023-05-29T00:39:42;-19629.94;;;17.07;100.00
5350;BME280;2697;42.144;24.794;2023-05-29T00:42:07;-19627.41;;;16.99;100.00
5350;BME280;2697;42.144;24.794;2023-05-29T00:44:32;-19627.41;;;16.99;100.00
5350;BME280;2697;42.144;24.794;2023-05-29T00:46:58;-19628.00;;;17.01;100.00
5350;BME280;2697;42.144;24.794;2023-05-29T00:49:24;-19631.28;;;17.12;100.00
5350;BME280;2697;42.144;24.794;2023-05-29T00:51:50;-19629.94;;;17.07;100.00
5350;BME280;2697;42.144;24.794;2023-05-29T00:54:21;-19630.22;;;17.08;100.00
5350;BME280;2697;42.144;24.794;2023-05-29T00:56:47;-19630.09;;;17.08;100.00
5350;BME280;2697;42.144;24.794;2023-05-29T00:59:13;-19630.69;;;17.10;100.00
5350;BME280;2697;42.144;24.794;2023-05-29T01:01:39;-19626.50;;;16.96;100.00
5350;BME280;2697;42.144;24.794;2023-05-29T01:04:06;-19634.41;;;17.23;100.00
5350;BME280;2697;42.144;24.794;2023-05-29T01:06:32;-19636.19;;;17.29;100.00
5350;BME280;2697;42.144;24.794;2023-05-29T01:08:57;-19637.69;;;17.34;100.00
5350;BME280;2697;42.144;24.794;2023-05-29T01:14:29;-19635.16;;;17.25;100.00
5350;BME280;2697;42.144;24.794;2023-05-29T01:28:25;-19636.34;;;17.29;100.00
5350;BME280;2697;42.144;24.794;2023-05-29T01:30:54;-19634.56;;;17.23;100.00
5350;BME280;2697;42.144;24.794;2023-05-29T01:33:19;-19633.38;;;17.19;100.00
5350;BME280;2697;42.144;24.794;2023-05-29T01:35:45;-19632.03;;;17.15;100.00
5350;BME280;2697;42.144;24.794;2023-05-29T01:38:11;-19629.94;;;17.07;100.00
5350;BME280;2697;42.144;24.794;2023-05-29T01:40:36;-19634.13;;;17.22;100.00
5350;BME280;2697;42.144;24.794;2023-05-29T01:43:02;-19629.78;;;17.07;100.00
5350;BME280;2697;42.144;24.794;2023-05-29T01:45:28;-19637.25;;;17.32;100.00
5350;BME280;2697;42.144;24.794;2023-05-29T01:47:54;-19639.03;;;17.38;100.00
5350;BME280;2697;42.144;24.794;2023-05-29T01:50:22;-19636.66;;;17.30;100.00
5350;BME280;2697;42.144;24.794;2023-05-29T01:52:48;-19636.06;;;17.28;100.00
5350;BME280;2697;42.144;24.794;2023-05-29T01:55:14;-19636.66;;;17.30;100.00
5350;BME280;2697;42.144;24.794;2023-05-29T01:57:40;-19635.91;;;17.28;100.00
5350;BME280;2697;42.144;24.794;2023-05-29T02:00:07;-19632.78;;;17.17;100.00
5350;BME280;2697;42.144;24.794;2023-05-29T02:02:40;-19633.06;;;17.18;100.00
5350;BME280;2697;42.144;24.794;2023-05-29T02:05:07;-19631.88;;;17.14;100.00
5350;BME280;2697;42.144;24.794;2023-05-29T02:07:33;-19636.06;;;17.28;100.00
5350;BME280;2697;42.144;24.794;2023-05-29T02:09:59;-19631.88;;;17.14;100.00
5350;BME280;2697;42.144;24.794;2023-05-29T02:12:25;-19635.75;;;17.27;100.00
5350;BME280;2697;42.144;24.794;2023-05-29T02:14:50;-19639.34;;;17.39;100.00
5350;BME280;2697;42.144;24.794;2023-05-29T02:17:16;-19633.66;;;17.20;100.00
5350;BME280;2697;42.144;24.794;2023-05-29T02:19:41;-19631.28;;;17.12;100.00
5350;BME280;2697;42.144;24.794;2023-05-29T02:22:07;-19636.06;;;17.28;100.00
5350;BME280;2697;42.144;24.794;2023-05-29T02:24:33;-19635.16;;;17.25;100.00
5350;BME280;2697;42.144;24.794;2023-05-29T02:26:58;-19631.13;;;17.12;100.00
5350;BME280;2697;42.144;24.794;2023-05-29T02:29:23;-19634.56;;;17.23;100.00
5350;BME280;2697;42.144;24.794;2023-05-29T02:31:49;-19636.06;;;17.28;100.00
5350;BME280;2697;42.144;24.794;2023-05-29T02:34:14;-19635.75;;;17.27;100.00
5350;BME280;2697;42.144;24.794;2023-05-29T02:36:39;-19633.97;;;17.21;100.00
5350;BME280;2697;42.144;24.794;2023-05-29T02:39:05;-19631.28;;;17.12;100.00
5350;BME280;2697;42.144;24.794;2023-05-29T02:41:31;-19634.25;;;17.22;100.00
5350;BME280;2697;42.144;24.794;2023-05-29T02:43:58;-19630.53;;;17.09;100.00
5350;BME280;2697;42.144;24.794;2023-05-29T02:46:23;-19629.94;;;17.07;100.00
5350;BME280;2697;42.144;24.794;2023-05-29T02:48:48;-19632.47;;;17.16;100.00
5350;BME280;2697;42.144;24.794;2023-05-29T02:51:14;-19635.91;;;17.28;100.00
5350;BME280;2697;42.144;24.794;2023-05-29T02:53:39;-19635.47;;;17.26;100.00
5350;BME280;2697;42.144;24.794;2023-05-29T02:56:07;-19631.72;;;17.14;100.00
5350;BME280;2697;42.144;24.794;2023-05-29T02:58:33;-19633.97;;;17.21;100.00
5350;BME280;2697;42.144;24.794;2023-05-29T03:01:00;-19633.06;;;17.18;100.00
5350;BME280;2697;42.144;24.794;2023-05-29T03:03:27;-19633.66;;;17.20;100.00
5350;BME280;2697;42.144;24.794;2023-05-29T03:05:53;-19631.88;;;17.14;100.00
5350;BME280;2697;42.144;24.794;2023-05-29T03:08:18;-19632.03;;;17.15;100.00
5350;BME280;2697;42.144;24.794;2023-05-29T03:10:43;-19631.56;;;17.13;100.00
5350;BME280;2697;42.144;24.794;2023-05-29T03:13:10;-19630.22;;;17.08;100.00
5350;BME280;2697;42.144;24.794;2023-05-29T03:15:35;-19633.97;;;17.21;100.00
5350;BME280;2697;42.144;24.794;2023-05-29T03:18:00;-19637.09;;;17.32;100.00
5350;BME280;2697;42.144;24.794;2023-05-29T03:20:26;-19635.16;;;17.25;100.00
5350;BME280;2697;42.144;24.794;2023-05-29T03:22:53;-19637.25;;;17.32;100.00
5350;BME280;2697;42.144;24.794;2023-05-29T03:25:20;-19635.16;;;17.25;100.00
5350;BME280;2697;42.144;24.794;2023-05-29T03:27:45;-19635.47;;;17.26;100.00
5350;BME280;2697;42.144;24.794;2023-05-29T03:30:11;-19636.50;;;17.30;100.00
5350;BME280;2697;42.144;24.794;2023-05-29T03:32:36;-19636.06;;;17.28;100.00
5350;BME280;2697;42.144;24.794;2023-05-29T03:35:02;-19630.69;;;17.10;100.00
5350;BME280;2697;42.144;24.794;2023-05-29T03:37:29;-19633.22;;;17.19;100.00
5350;BME280;2697;42.144;24.794;2023-05-29T03:39:54;-19634.41;;;17.23;100.00
5350;BME280;2697;42.144;24.794;2023-05-29T03:42:20;-19635.16;;;17.25;100.00
5350;BME280;2697;42.144;24.794;2023-05-29T03:44:46;-19635.16;;;17.25;100.00
5350;BME280;2697;42.144;24.794;2023-05-29T03:47:11;-19629.19;;;17.05;100.00
5350;BME280;2697;42.144;24.794;2023-05-29T03:49:36;-19639.78;;;17.41;100.00
5350;BME280;2697;42.144;24.794;2023-05-29T03:52:02;-19638.44;;;17.36;100.00
5350;BME280;2697;42.144;24.794;2023-05-29T03:54:28;-19640.09;;;17.42;100.00
5350;BME280;2697;42.144;24.794;2023-05-29T03:56:53;-19639.03;;;17.38;100.00
5350;BME280;2697;42.144;24.794;2023-05-29T03:59:18;-19639.34;;;17.39;100.00
5350;BME280;2697;42.144;24.794;2023-05-29T04:01:44;-19643.66;;;17.54;100.00
5350;BME280;2697;42.144;24.794;2023-05-29T04:04:09;-19647.69;;;17.68;100.00
5350;BME280;2697;42.144;24.794;2023-05-29T04:06:35;-19648.47;;;17.71;100.00
5350;BME280;2697;42.144;24.794;2023-05-29T04:09:06;-19650.69;;;17.78;100.00
5350;BME280;2697;42.144;24.794;2023-05-29T04:11:35;-19653.22;;;17.87;100.00
5350;BME280;2697;42.144;24.794;2023-05-29T04:14:01;-19658.91;;;18.06;100.00
5350;BME280;2697;42.144;24.794;2023-05-29T04:16:27;-19661.00;;;18.13;100.00
5350;BME280;2697;42.144;24.794;2023-05-29T04:18:54;-19659.66;;;18.09;100.00
5350;BME280;2697;42.144;24.794;2023-05-29T04:21:19;-19660.25;;;18.11;100.00
5350;BME280;2697;42.144;24.794;2023-05-29T04:23:45;-19664.44;;;18.25;100.00
5350;BME280;2697;42.144;24.794;2023-05-29T04:26:10;-19665.91;;;18.30;100.00
5350;BME280;2697;42.144;24.794;2023-05-29T04:28:36;-19672.03;;;18.51;100.00
5350;BME280;2697;42.144;24.794;2023-05-29T04:31:02;-13915.16;;;18.35;100.00
5350;BME280;2697;42.144;24.794;2023-05-29T04:33:28;-15611.16;;;18.52;100.00
5350;BME280;2697;42.144;24.794;2023-05-29T04:35:54;-14927.22;;;18.20;100.00
5350;BME280;2697;42.144;24.794;2023-05-29T04:38:20;-14247.97;;;18.08;100.00
5350;BME280;2697;42.144;24.794;2023-05-29T04:40:50;-13906.97;;;17.94;100.00
5350;BME280;2697;42.144;24.794;2023-05-29T04:43:16;-17630.28;;;18.10;100.00
5350;BME280;2697;42.144;24.794;2023-05-29T04:45:41;-15601.50;;;18.10;100.00
5350;BME280;2697;42.144;24.794;2023-05-29T04:48:07;-17292.34;;;18.10;100.00
5350;BME280;2697;42.144;24.794;2023-05-29T04:50:33;-14927.00;;;18.19;100.00
5350;BME280;2697;42.144;24.794;2023-05-29T04:53:00;-15603.00;;;18.16;100.00
5350;BME280;2697;42.144;24.794;2023-05-29T04:55:26;-14586.50;;;18.09;100.00
5350;BME280;2697;42.144;24.794;2023-05-29T04:57:52;-13912.09;;;18.20;100.00
5350;BME280;2697;42.144;24.794;2023-05-29T05:00:18;-14925.66;;;18.13;100.00
5350;BME280;2697;42.144;24.794;2023-05-29T05:02:44;-13911.47;;;18.17;100.00
5350;BME280;2697;42.144;24.794;2023-05-29T05:05:10;-14925.78;;;18.13;100.00
5350;BME280;2697;42.144;24.794;2023-05-29T05:07:35;-12216.06;;;18.00;100.00
5350;BME280;2697;42.144;24.794;2023-05-29T05:10:02;-11200.22;;;17.98;100.00
5350;BME280;2697;42.144;24.794;2023-05-29T05:12:28;-10524.72;;;18.09;100.00
5350;BME280;2697;42.144;24.794;2023-05-29T05:14:53;-10186.03;;;18.09;100.00
5350;BME280;2697;42.144;24.794;2023-05-29T05:17:19;-12557.59;;;18.17;100.00
5350;BME280;2697;42.144;24.794;2023-05-29T05:19:45;-12559.53;;;18.28;100.00
5350;BME280;2697;42.144;24.794;2023-05-29T05:22:11;-10191.50;;;18.47;100.00
5350;BME280;2697;42.144;24.794;2023-05-29T05:24:36;-8495.69;;;18.39;100.00
5350;BME280;2697;42.144;24.794;2023-05-29T05:27:02;-9515.44;;;18.61;100.00
5350;BME280;2697;42.144;24.794;2023-05-29T05:29:27;-2728.84;;;18.67;100.00
5350;BME280;2697;42.144;24.794;2023-05-29T05:31:52;5428.66;;;18.38;100.00
5350;BME280;2697;42.144;24.794;2023-05-29T05:34:18;4070.47;;;18.66;100.00
5350;BME280;2697;42.144;24.794;2023-05-29T05:36:43;17029.38;;;18.91;100.00
5350;BME280;2697;42.144;24.794;2023-05-29T05:39:08;20794.47;;;19.08;100.00
5350;BME280;2697;42.144;24.794;2023-05-29T05:41:34;25935.88;;;19.28;100.00
5350;BME280;2697;42.144;24.794;2023-05-29T05:43:59;36910.75;;;19.26;100.00
5350;BME280;2697;42.144;24.794;2023-05-29T05:46:25;26286.38;;;19.46;100.00
5350;BME280;2697;42.144;24.794;2023-05-29T05:48:50;41050.66;;;19.49;100.00
5350;BME280;2697;42.144;24.794;2023-05-29T05:51:17;42424.25;;;19.46;100.00
5350;BME280;2697;42.144;24.794;2023-05-29T05:53:42;50673.72;;;19.26;100.00
5350;BME280;2697;42.144;24.794;2023-05-29T05:56:07;47239.69;;;19.40;100.00
5350;BME280;2697;42.144;24.794;2023-05-29T05:58:33;50708.50;;;19.67;100.00
5350;BME280;2697;42.144;24.794;2023-05-29T06:00:58;48991.78;;;19.76;100.00
5350;BME280;2697;42.144;24.794;2023-05-29T06:03:24;52804.78;;;19.97;100.00
5350;BME280;2697;42.144;24.794;2023-05-29T06:05:50;79536.22;;;20.41;100.00
5350;BME280;2697;42.144;24.794;2023-05-29T06:08:17;100868.81;;;20.76;100.00
5350;BME280;2697;42.144;24.794;2023-05-29T06:10:42;139601.38;;;21.04;100.00
5350;BME280;2697;42.144;24.794;2023-05-29T06:13:07;158089.53;;;21.33;100.00
5350;BME280;2697;42.144;24.794;2023-05-29T06:15:33;158120.03;;;21.45;100.00
5350;BME280;2697;42.144;24.794;2023-05-29T06:18:00;158057.59;;;21.21;100.00
5350;BME280;2697;42.144;24.794;2023-05-29T06:20:26;158094.81;;;21.36;100.00
5350;BME280;2697;42.144;24.794;2023-05-29T06:22:51;158137.31;;;21.52;100.00
5350;BME280;2697;42.144;24.794;2023-05-29T06:25:17;158145.25;;;21.55;100.00
5350;BME280;2697;42.144;24.794;2023-05-29T06:27:45;158296.66;;;22.13;100.00
5350;BME280;2697;42.144;24.794;2023-05-29T06:30:12;158121.38;;;21.46;100.00
5350;BME280;2697;42.144;24.794;2023-05-29T06:32:37;158167.81;;;21.63;100.00
5350;BME280;2697;42.144;24.794;2023-05-29T06:35:03;158251.47;;;21.96;100.00
5350;BME280;2697;42.144;24.794;2023-05-29T06:37:29;158278.06;;;22.06;100.00
5350;BME280;2697;42.144;24.794;2023-05-29T06:39:54;158227.56;;;21.86;100.00
5350;BME280;2697;42.144;24.794;2023-05-29T06:42:19;158298.00;;;22.13;100.00
5350;BME280;2697;42.144;24.794;2023-05-29T06:44:45;158304.66;;;22.16;100.00
5350;BME280;2697;42.144;24.794;2023-05-29T06:47:10;158315.28;;;22.20;100.00
5350;BME280;2697;42.144;24.794;2023-05-29T06:49:35;158351.16;;;22.34;100.00
5350;BME280;2697;42.144;24.794;2023-05-29T06:52:01;158421.53;;;22.61;100.00
5350;BME280;2697;42.144;24.794;2023-05-29T06:54:26;158259.47;;;21.99;100.00
5350;BME280;2697;42.144;24.794;2023-05-29T06:56:52;158372.38;;;22.42;100.00
5350;BME280;2697;42.144;24.794;2023-05-29T06:59:18;158368.38;;;22.40;100.00
5350;BME280;2697;42.144;24.794;2023-05-29T07:01:44;158397.59;;;22.52;100.00
5350;BME280;2697;42.144;24.794;2023-05-29T07:04:11;158331.22;;;22.26;100.00
5350;BME280;2697;42.144;24.794;2023-05-29T07:06:36;158384.34;;;22.46;100.00
5350;BME280;2697;42.144;24.794;2023-05-29T07:09:02;158498.66;;;22.90;100.00
5350;BME280;2697;42.144;24.794;2023-05-29T07:11:27;158450.78;;;22.72;100.00
5350;BME280;2697;42.144;24.794;2023-05-29T07:13:55;158392.31;;;22.50;100.00
5350;BME280;2697;42.144;24.794;2023-05-29T07:16:21;158530.53;;;23.02;100.00
5350;BME280;2697;42.144;24.794;2023-05-29T07:18:46;158606.28;;;23.31;100.00
5350;BME280;2697;42.144;24.794;2023-05-29T07:21:11;158587.69;;;23.24;100.00
5350;BME280;2697;42.144;24.794;2023-05-29T07:23:37;158724.66;;;23.77;99.70
5350;BME280;2697;42.144;24.794;2023-05-29T07:26:02;158688.75;;;23.63;100.00
5350;BME280;2697;42.144;24.794;2023-05-29T07:28:28;158618.28;;;23.36;100.00
5350;BME280;2697;42.144;24.794;2023-05-29T07:30:53;158594.34;;;23.27;96.44
5350;BME280;2697;42.144;24.794;2023-05-29T07:33:18;158562.44;;;23.15;100.00
5350;BME280;2697;42.144;24.794;2023-05-29T07:35:44;158533.19;;;23.03;100.00
5350;BME280;2697;42.144;24.794;2023-05-29T07:38:09;158567.72;;;23.17;100.00
5350;BME280;2697;42.144;24.794;2023-05-29T07:40:35;158546.50;;;23.09;100.00
5350;BME280;2697;42.144;24.794;2023-05-29T07:43:00;158602.31;;;23.30;100.00
5350;BME280;2697;42.144;24.794;2023-05-29T07:45:26;158658.13;;;23.51;94.66
5350;BME280;2697;42.144;24.794;2023-05-29T07:47:52;158570.44;;;23.18;98.55
5350;BME280;2697;42.144;24.794;2023-05-29T07:50:17;158698.06;;;23.67;97.85
5350;BME280;2697;42.144;24.794;2023-05-29T07:52:43;158813.75;;;24.11;93.41
5350;BME280;2697;42.144;24.794;2023-05-29T07:55:09;158930.81;;;24.56;92.01
5350;BME280;2697;42.144;24.794;2023-05-29T07:57:35;158924.19;;;24.53;92.96
5350;BME280;2697;42.144;24.794;2023-05-29T08:00:00;158858.94;;;24.28;91.85
5350;BME280;2697;42.144;24.794;2023-05-29T08:02:31;158865.63;;;24.31;90.00
5350;BME280;2697;42.144;24.794;2023-05-29T08:04:56;158897.59;;;24.43;90.80
5350;BME280;2697;42.144;24.794;2023-05-29T08:07:21;158853.63;;;24.26;88.31
5350;BME280;2697;42.144;24.794;2023-05-29T08:09:47;158804.44;;;24.07;94.75
5350;BME280;2697;42.144;24.794;2023-05-29T08:12:12;158682.09;;;23.60;98.63
5350;BME280;2697;42.144;24.794;2023-05-29T08:14:37;158885.63;;;24.38;91.57
5350;BME280;2697;42.144;24.794;2023-05-29T08:17:03;158944.16;;;24.61;85.10
5350;BME280;2697;42.144;24.794;2023-05-29T08:19:28;159009.34;;;24.86;86.41
5350;BME280;2697;42.144;24.794;2023-05-29T08:21:54;158997.34;;;24.81;83.64
5350;BME280;2697;42.144;24.794;2023-05-29T08:24:19;159126.47;;;25.30;85.58
5350;BME280;2697;42.144;24.794;2023-05-29T08:26:45;159229.00;;;25.70;85.44
5350;BME280;2697;42.144;24.794;2023-05-29T08:29:10;159186.38;;;25.53;80.81
5350;BME280;2697;42.144;24.794;2023-05-29T08:31:36;159083.91;;;25.14;88.03
5350;BME280;2697;42.144;24.794;2023-05-29T08:34:01;159315.56;;;26.03;80.16
5350;BME280;2697;42.144;24.794;2023-05-29T08:36:27;159618.03;;;27.18;72.25
5350;BME280;2697;42.144;24.794;2023-05-29T08:38:53;159747.34;;;27.68;67.85
5350;BME280;2697;42.144;24.794;2023-05-29T08:41:28;159956.69;;;28.48;63.30
5350;BME280;2697;42.144;24.794;2023-05-29T08:44:02;160062.06;;;28.88;63.18
5350;BME280;2697;42.144;24.794;2023-05-29T08:46:29;159936.72;;;28.40;62.47
5350;BME280;2697;42.144;24.794;2023-05-29T08:48:58;159983.41;;;28.58;62.03
5350;BME280;2697;42.144;24.794;2023-05-29T08:51:27;160139.47;;;29.17;60.40
5350;BME280;2697;42.144;24.794;2023-05-29T08:53:56;160030.03;;;28.76;61.58
5350;BME280;2697;42.144;24.794;2023-05-29T08:56:22;159788.69;;;27.83;58.62
5350;BME280;2697;42.144;24.794;2023-05-29T08:58:48;159785.97;;;27.82;59.53
5350;BME280;2697;42.144;24.794;2023-05-29T09:01:14;159777.97;;;27.79;59.45
5350;BME280;2697;42.144;24.794;2023-05-29T09:03:40;159750.00;;;27.69;59.25
5350;BME280;2697;42.144;24.794;2023-05-29T09:06:07;159827.31;;;27.98;58.30
5350;BME280;2697;42.144;24.794;2023-05-29T09:08:34;159760.63;;;27.73;58.75
5350;BME280;2697;42.144;24.794;2023-05-29T09:10:59;159556.69;;;26.95;62.88
5350;BME280;2697;42.144;24.794;2023-05-29T09:13:25;159805.97;;;27.90;61.92
5350;BME280;2697;42.144;24.794;2023-05-29T09:15:58;160072.78;;;28.92;56.53
5350;BME280;2697;42.144;24.794;2023-05-29T09:18:23;159790.00;;;27.84;59.26
5350;BME280;2697;42.144;24.794;2023-05-29T09:20:49;159418.13;;;26.42;64.81
5350;BME280;2697;42.144;24.794;2023-05-29T09:23:14;159503.41;;;26.75;65.13
5350;BME280;2697;42.144;24.794;2023-05-29T09:25:40;159431.47;;;26.47;65.97
5350;BME280;2697;42.144;24.794;2023-05-29T09:28:08;159383.47;;;26.29;68.31
5350;BME280;2697;42.144;24.794;2023-05-29T09:33:00;159390.13;;;26.31;69.07
5350;BME280;2697;42.144;24.794;2023-05-29T09:35:27;159595.38;;;27.10;65.30
5350;BME280;2697;42.144;24.794;2023-05-29T09:37:57;159595.38;;;27.10;62.15
5350;BME280;2697;42.144;24.794;2023-05-29T09:40:22;159420.78;;;26.43;66.53
5350;BME280;2697;42.144;24.794;2023-05-29T09:42:47;159479.41;;;26.65;63.39
5350;BME280;2697;42.144;24.794;2023-05-29T09:45:17;159331.53;;;26.09;65.39
5350;BME280;2697;42.144;24.794;2023-05-29T09:47:43;159520.72;;;26.81;64.59
5350;BME280;2697;42.144;24.794;2023-05-29T09:50:18;159606.03;;;27.14;60.00
5350;BME280;2697;42.144;24.794;2023-05-29T09:52:44;159584.69;;;27.06;61.87
5350;BME280;2697;42.144;24.794;2023-05-29T09:55:09;159438.13;;;26.50;65.28
5350;BME280;2697;42.144;24.794;2023-05-29T09:57:36;159448.78;;;26.54;61.14
5350;BME280;2697;42.144;24.794;2023-05-29T10:00:02;159398.13;;;26.34;63.23
5350;BME280;2697;42.144;24.794;2023-05-29T10:02:29;159418.13;;;26.42;65.51
5350;BME280;2697;42.144;24.794;2023-05-29T10:04:54;159534.03;;;26.86;62.59
5350;BME280;2697;42.144;24.794;2023-05-29T10:07:26;159888.66;;;28.22;59.50
5350;BME280;2697;42.144;24.794;2023-05-29T10:09:58;159531.38;;;26.85;60.60
5350;BME280;2697;42.144;24.794;2023-05-29T10:12:26;159624.69;;;27.21;58.76
5350;BME280;2697;42.144;24.794;2023-05-29T10:14:54;159639.31;;;27.26;60.16
5350;BME280;2697;42.144;24.794;2023-05-29T10:17:23;159719.31;;;27.57;58.17
5350;BME280;2697;42.144;24.794;2023-05-29T10:19:50;159650.00;;;27.31;60.59
5350;BME280;2697;42.144;24.794;2023-05-29T10:22:21;159681.97;;;27.43;59.74
5350;BME280;2697;42.144;24.794;2023-05-29T10:24:50;159828.63;;;27.99;59.54
5350;BME280;2697;42.144;24.794;2023-05-29T10:27:18;159846.00;;;28.05;58.13
5350;BME280;2697;42.144;24.794;2023-05-29T10:29:49;159963.38;;;28.50;56.73
5350;BME280;2697;42.144;24.794;2023-05-29T10:32:53;160188.84;;;29.36;54.54
5350;BME280;2697;42.144;24.794;2023-05-29T10:35:46;159995.38;;;28.62;53.73
5350;BME280;2697;42.144;24.794;2023-05-29T10:38:14;160071.44;;;28.91;54.05
5350;BME280;2697;42.144;24.794;2023-05-29T10:40:42;160208.88;;;29.44;51.18
5350;BME280;2697;42.144;24.794;2023-05-29T10:43:07;160182.19;;;29.34;50.45
5350;BME280;2697;42.144;24.794;2023-05-29T10:45:48;159888.66;;;28.22;53.29
5350;BME280;2697;42.144;24.794;2023-05-29T10:50:45;160150.13;;;29.21;51.94
5350;BME280;2697;42.144;24.794;2023-05-29T10:53:15;159714.00;;;27.55;55.92
5350;BME280;2697;42.144;24.794;2023-05-29T10:55:42;159938.06;;;28.41;55.12
5350;BME280;2697;42.144;24.794;2023-05-29T10:58:14;160135.50;;;29.16;53.76
5350;BME280;2697;42.144;24.794;2023-05-29T11:00:42;160080.81;;;28.95;54.89
5350;BME280;2697;42.144;24.794;2023-05-29T11:03:08;160139.47;;;29.17;55.09
5350;BME280;2697;42.144;24.794;2023-05-29T11:05:34;160140.81;;;29.18;55.68
5350;BME280;2697;42.144;24.794;2023-05-29T11:08:01;159970.03;;;28.53;55.18
5350;BME280;2697;42.144;24.794;2023-05-29T11:13:31;160511.94;;;30.59;50.60
5350;BME280;2697;42.144;24.794;2023-05-29T11:16:12;159942.03;;;28.42;51.89
5350;BME280;2697;42.144;24.794;2023-05-29T11:18:44;159771.34;;;27.77;55.64
5350;BME280;2697;42.144;24.794;2023-05-29T11:21:30;159992.72;;;28.61;53.35
5350;BME280;2697;42.144;24.794;2023-05-29T11:23:58;160056.75;;;28.86;52.34
5350;BME280;2697;42.144;24.794;2023-05-29T11:26:26;159856.63;;;28.09;54.69
5350;BME280;2697;42.144;24.794;2023-05-29T11:28:52;160056.75;;;28.86;53.04
5350;BME280;2697;42.144;24.794;2023-05-29T11:31:18;160242.25;;;29.57;53.03
5350;BME280;2697;42.144;24.794;2023-05-29T11:33:49;160008.72;;;28.67;54.68
5350;BME280;2697;42.144;24.794;2023-05-29T11:36:17;160075.44;;;28.93;53.49
5350;BME280;2697;42.144;24.794;2023-05-29T11:38:43;160180.88;;;29.33;53.03
5350;BME280;2697;42.144;24.794;2023-05-29T11:41:09;160174.16;;;29.31;52.48
5350;BME280;2697;42.144;24.794;2023-05-29T11:43:34;160310.34;;;29.83;51.17
5350;BME280;2697;42.144;24.794;2023-05-29T11:46:00;160499.97;;;30.55;48.09
5350;BME280;2697;42.144;24.794;2023-05-29T11:48:25;160019.38;;;28.72;53.45
5350;BME280;2697;42.144;24.794;2023-05-29T11:50:52;160036.72;;;28.78;55.30
5350;BME280;2697;42.144;24.794;2023-05-29T11:53:18;160163.50;;;29.27;53.28
5350;BME280;2697;42.144;24.794;2023-05-29T11:55:44;160135.50;;;29.16;52.98
5350;BME280;2697;42.144;24.794;2023-05-29T11:58:09;160222.25;;;29.49;52.46
5350;BME280;2697;42.144;24.794;2023-05-29T12:00:36;159998.03;;;28.63;54.14
5350;BME280;2697;42.144;24.794;2023-05-29T12:03:02;160255.63;;;29.62;50.78
5350;BME280;2697;42.144;24.794;2023-05-29T12:05:33;160310.34;;;29.83;50.37
5350;BME280;2697;42.144;24.794;2023-05-29T12:08:09;160234.28;;;29.54;51.18
5350;BME280;2697;42.144;24.794;2023-05-29T12:10:34;160118.13;;;29.09;53.77
5350;BME280;2697;42.144;24.794;2023-05-29T12:13:00;160216.88;;;29.47;51.86
5350;BME280;2697;42.144;24.794;2023-05-29T12:15:28;160401.16;;;30.17;50.28
5350;BME280;2697;42.144;24.794;2023-05-29T12:17:55;160183.53;;;29.34;52.01
5350;BME280;2697;42.144;24.794;2023-05-29T12:20:24;160236.94;;;29.55;50.29
5350;BME280;2697;42.144;24.794;2023-05-29T12:22:59;160120.81;;;29.10;52.76
5350;BME280;2697;42.144;24.794;2023-05-29T12:25:26;159763.34;;;27.74;57.70
5350;BME280;2697;42.144;24.794;2023-05-29T12:27:51;160056.75;;;28.86;53.98
5350;BME280;2697;42.144;24.794;2023-05-29T12:30:21;160150.13;;;29.21;51.76
5350;BME280;2697;42.144;24.794;2023-05-29T12:32:48;160019.38;;;28.72;51.87
5350;BME280;2697;42.144;24.794;2023-05-29T12:35:19;159757.97;;;27.72;54.73
5350;BME280;2697;42.144;24.794;2023-05-29T12:38:01;160140.81;;;29.18;50.58
5350;BME280;2697;42.144;24.794;2023-05-29T12:40:31;159971.38;;;28.53;51.21
5350;BME280;2697;42.144;24.794;2023-05-29T12:43:04;160102.09;;;29.03;49.88
5350;BME280;2697;42.144;24.794;2023-05-29T12:45:31;160212.88;;;29.45;49.97
5350;BME280;2697;42.144;24.794;2023-05-29T12:47:59;160172.81;;;29.30;51.56
5350;BME280;2697;42.144;24.794;2023-05-29T12:50:40;160091.47;;;28.99;50.78
5350;BME280;2697;42.144;24.794;2023-05-29T12:53:14;160062.06;;;28.88;51.47
5350;BME280;2697;42.144;24.794;2023-05-29T12:55:42;160272.94;;;29.68;49.15
5350;BME280;2697;42.144;24.794;2023-05-29T12:58:12;160274.28;;;29.69;50.65
5350;BME280;2697;42.144;24.794;2023-05-29T13:00:40;160449.22;;;30.35;46.33
5350;BME280;2697;42.144;24.794;2023-05-29T13:03:06;160491.91;;;30.52;47.27
5350;BME280;2697;42.144;24.794;2023-05-29T13:05:31;160449.22;;;30.35;46.21
5350;BME280;2697;42.144;24.794;2023-05-29T13:07:57;160410.50;;;30.21;47.77
5350;BME280;2697;42.144;24.794;2023-05-29T13:10:24;160082.16;;;28.95;48.32
5350;BME280;2697;42.144;24.794;2023-05-29T13:12:50;160054.03;;;28.85;51.25
5350;BME280;2697;42.144;24.794;2023-05-29T13:15:24;160011.41;;;28.68;50.35